sensor_id;sensor_type;location;lat;lon;timestamp;P1;durP1;ratioP1;P2;durP2;ratioP2
72941;SDS011;69665;55.822;37.330;2023-06-04T00:01:39;5.25;;;1.80;;
72941;SDS011;69665;55.822;37.330;2023-06-04T00:04:24;4.43;;;1.80;;
72941;SDS011;69665;55.822;37.330;2023-06-04T00:07:09;7.32;;;1.80;;
72941;SDS011;69665;55.822;37.330;2023-06-04T00:10:12;4.68;;;1.45;;
72941;SDS011;69665;55.822;37.330;2023-06-04T00:12:56;6.85;;;1.73;;
72941;SDS011;69665;55.822;37.330;2023-06-04T00:15:40;6.47;;;2.15;;
72941;SDS011;69665;55.822;37.330;2023-06-04T00:18:24;5.90;;;2.17;;
72941;SDS011;69665;55.822;37.330;2023-06-04T00:21:09;7.18;;;2.67;;
72941;SDS011;69665;55.822;37.330;2023-06-04T00:23:53;8.18;;;2.08;;
72941;SDS011;69665;55.822;37.330;2023-06-04T00:26:38;6.93;;;2.30;;
72941;SDS011;69665;55.822;37.330;2023-06-04T00:29:22;6.82;;;2.10;;
72941;SDS011;69665;55.822;37.330;2023-06-04T00:32:06;4.85;;;1.55;;
72941;SDS011;69665;55.822;37.330;2023-06-04T00:34:51;4.93;;;2.10;;
72941;SDS011;69665;55.822;37.330;2023-06-04T00:37:39;5.82;;;2.38;;
72941;SDS011;69665;55.822;37.330;2023-06-04T00:40:23;6.38;;;2.13;;
72941;SDS011;69665;55.822;37.330;2023-06-04T00:43:07;6.65;;;2.00;;
72941;SDS011;69665;55.822;37.330;2023-06-04T00:46:11;5.85;;;2.10;;
72941;SDS011;69665;55.822;37.330;2023-06-04T00:49:01;5.70;;;2.38;;
72941;SDS011;69665;55.822;37.330;2023-06-04T00:51:46;7.38;;;2.13;;
72941;SDS011;69665;55.822;37.330;2023-06-04T00:54:30;5.78;;;2.00;;
72941;SDS011;69665;55.822;37.330;2023-06-04T00:57:16;4.78;;;2.00;;
72941;SDS011;69665;55.822;37.330;2023-06-04T01:00:00;4.75;;;1.80;;
72941;SDS011;69665;55.822;37.330;2023-06-04T01:02:44;6.40;;;2.28;;
72941;SDS011;69665;55.822;37.330;2023-06-04T01:05:41;6.25;;;1.90;;
72941;SDS011;69665;55.822;37.330;2023-06-04T01:08:52;4.20;;;2.10;;
72941;SDS011;69665;55.822;37.330;2023-06-04T01:11:38;5.82;;;2.00;;
72941;SDS011;69665;55.822;37.330;2023-06-04T01:14:24;6.53;;;2.03;;
72941;SDS011;69665;55.822;37.330;2023-06-04T01:17:17;7.18;;;2.00;;
72941;SDS011;69665;55.822;37.330;2023-06-04T01:23:25;6.53;;;2.00;;
72941;SDS011;69665;55.822;37.330;2023-06-04T01:26:19;5.50;;;1.73;;
72941;SDS011;69665;55.822;37.330;2023-06-04T01:29:04;4.47;;;1.60;;
72941;SDS011;69665;55.822;37.330;2023-06-04T01:31:50;6.15;;;2.50;;
72941;SDS011;69665;55.822;37.330;2023-06-04T01:37:58;4.75;;;1.70;;
72941;SDS011;69665;55.822;37.330;2023-06-04T01:40:42;6.60;;;2.00;;
72941;SDS011;69665;55.822;37.330;2023-06-04T01:43:27;4.78;;;1.60;;
72941;SDS011;69665;55.822;37.330;2023-06-04T01:46:12;5.72;;;1.83;;
72941;SDS011;69665;55.822;37.330;2023-06-04T01:48:57;6.78;;;1.83;;
72941;SDS011;69665;55.822;37.330;2023-06-04T01:51:41;4.88;;;1.95;;
72941;SDS011;69665;55.822;37.330;2023-06-04T01:54:25;5.43;;;1.90;;
72941;SDS011;69665;55.822;37.330;2023-06-04T01:57:10;4.22;;;1.77;;
72941;SDS011;69665;55.822;37.330;2023-06-04T01:59:54;6.72;;;1.75;;
72941;SDS011;69665;55.822;37.330;2023-06-04T02:02:39;5.68;;;1.65;;
72941;SDS011;69665;55.822;37.330;2023-06-04T02:05:25;3.65;;;1.40;;
72941;SDS011;69665;55.822;37.330;2023-06-04T02:08:10;4.53;;;1.48;;
72941;SDS011;69665;55.822;37.330;2023-06-04T02:13:57;5.13;;;1.63;;
72941;SDS011;69665;55.822;37.330;2023-06-04T02:16:41;6.47;;;1.77;;
72941;SDS011;69665;55.822;37.330;2023-06-04T02:19:26;2.78;;;1.10;;
72941;SDS011;69665;55.822;37.330;2023-06-04T02:22:13;3.65;;;1.27;;
72941;SDS011;69665;55.822;37.330;2023-06-04T02:24:58;4.70;;;1.45;;
72941;SDS011;69665;55.822;37.330;2023-06-04T02:27:45;4.32;;;1.25;;
72941;SDS011;69665;55.822;37.330;2023-06-04T02:30:29;4.28;;;1.50;;
72941;SDS011;69665;55.822;37.330;2023-06-04T02:33:14;3.22;;;1.30;;
72941;SDS011;69665;55.822;37.330;2023-06-04T02:35:58;4.70;;;1.58;;
72941;SDS011;69665;55.822;37.330;2023-06-04T02:39:02;4.30;;;1.40;;
72941;SDS011;69665;55.822;37.330;2023-06-04T02:41:47;5.03;;;1.20;;
72941;SDS011;69665;55.822;37.330;2023-06-04T02:44:31;4.40;;;1.70;;
72941;SDS011;69665;55.822;37.330;2023-06-04T02:47:16;5.95;;;2.33;;
72941;SDS011;69665;55.822;37.330;2023-06-04T02:50:00;7.03;;;1.85;;
72941;SDS011;69665;55.822;37.330;2023-06-04T02:52:44;5.15;;;1.60;;
72941;SDS011;69665;55.822;37.330;2023-06-04T02:55:28;2.78;;;1.20;;
72941;SDS011;69665;55.822;37.330;2023-06-04T02:58:15;4.63;;;1.30;;
72941;SDS011;69665;55.822;37.330;2023-06-04T03:01:00;1.95;;;1.00;;
72941;SDS011;69665;55.822;37.330;2023-06-04T03:03:44;4.90;;;1.38;;
72941;SDS011;69665;55.822;37.330;2023-06-04T03:06:29;6.65;;;1.63;;
72941;SDS011;69665;55.822;37.330;2023-06-04T03:09:14;3.88;;;1.45;;
72941;SDS011;69665;55.822;37.330;2023-06-04T03:11:59;2.88;;;1.08;;
72941;SDS011;69665;55.822;37.330;2023-06-04T03:14:45;3.38;;;1.10;;
72941;SDS011;69665;55.822;37.330;2023-06-04T03:17:31;3.05;;;1.08;;
72941;SDS011;69665;55.822;37.330;2023-06-04T03:20:15;3.38;;;1.00;;
72941;SDS011;69665;55.822;37.330;2023-06-04T03:23:00;2.72;;;0.90;;
72941;SDS011;69665;55.822;37.330;2023-06-04T03:26:03;4.68;;;0.70;;
72941;SDS011;69665;55.822;37.330;2023-06-04T03:28:48;3.22;;;0.80;;
72941;SDS011;69665;55.822;37.330;2023-06-04T03:31:32;2.17;;;0.90;;
72941;SDS011;69665;55.822;37.330;2023-06-04T03:34:17;2.97;;;0.80;;
72941;SDS011;69665;55.822;37.330;2023-06-04T03:37:01;2.10;;;0.75;;
72941;SDS011;69665;55.822;37.330;2023-06-04T03:39:46;2.13;;;0.82;;
72941;SDS011;69665;55.822;37.330;2023-06-04T03:42:30;3.85;;;0.90;;
72941;SDS011;69665;55.822;37.330;2023-06-04T03:45:15;2.63;;;1.00;;
72941;SDS011;69665;55.822;37.330;2023-06-04T03:47:59;1.83;;;0.80;;
72941;SDS011;69665;55.822;37.330;2023-06-04T03:50:43;4.28;;;0.98;;
72941;SDS011;69665;55.822;37.330;2023-06-04T03:53:29;2.75;;;1.00;;
72941;SDS011;69665;55.822;37.330;2023-06-04T03:56:14;2.42;;;0.80;;
72941;SDS011;69665;55.822;37.330;2023-06-04T03:58:58;3.00;;;1.00;;
72941;SDS011;69665;55.822;37.330;2023-06-04T04:01:43;3.78;;;1.27;;
72941;SDS011;69665;55.822;37.330;2023-06-04T04:04:27;2.42;;;0.90;;
72941;SDS011;69665;55.822;37.330;2023-06-04T04:07:11;2.03;;;0.80;;
72941;SDS011;69665;55.822;37.330;2023-06-04T04:09:56;2.97;;;0.90;;
72941;SDS011;69665;55.822;37.330;2023-06-04T04:12:40;2.17;;;0.80;;
72941;SDS011;69665;55.822;37.330;2023-06-04T04:15:24;2.33;;;1.02;;
72941;SDS011;69665;55.822;37.330;2023-06-04T04:18:27;1.67;;;1.00;;
72941;SDS011;69665;55.822;37.330;2023-06-04T04:21:12;1.77;;;0.90;;
72941;SDS011;69665;55.822;37.330;2023-06-04T04:23:56;2.65;;;0.88;;
72941;SDS011;69665;55.822;37.330;2023-06-04T04:26:40;2.65;;;0.88;;
72941;SDS011;69665;55.822;37.330;2023-06-04T04:29:27;1.13;;;0.68;;
72941;SDS011;69665;55.822;37.330;2023-06-04T04:32:11;2.70;;;0.90;;
72941;SDS011;69665;55.822;37.330;2023-06-04T04:34:55;1.65;;;0.73;;
72941;SDS011;69665;55.822;37.330;2023-06-04T04:37:41;2.38;;;1.00;;
72941;SDS011;69665;55.822;37.330;2023-06-04T04:40:25;4.40;;;1.20;;
72941;SDS011;69665;55.822;37.330;2023-06-04T04:45:56;2.25;;;0.82;;
72941;SDS011;69665;55.822;37.330;2023-06-04T04:48:40;2.60;;;0.93;;
72941;SDS011;69665;55.822;37.330;2023-06-04T04:51:26;2.05;;;0.80;;
72941;SDS011;69665;55.822;37.330;2023-06-04T04:54:10;2.53;;;0.95;;
72941;SDS011;69665;55.822;37.330;2023-06-04T04:56:54;1.95;;;0.90;;
72941;SDS011;69665;55.822;37.330;2023-06-04T04:59:38;3.03;;;0.98;;
72941;SDS011;69665;55.822;37.330;2023-06-04T05:02:23;3.55;;;0.85;;
72941;SDS011;69665;55.822;37.330;2023-06-04T05:05:07;2.03;;;0.80;;
72941;SDS011;69665;55.822;37.330;2023-06-04T05:07:51;2.28;;;0.80;;
72941;SDS011;69665;55.822;37.330;2023-06-04T05:10:35;1.88;;;0.80;;
72941;SDS011;69665;55.822;37.330;2023-06-04T05:13:20;2.42;;;0.70;;
72941;SDS011;69665;55.822;37.330;2023-06-04T05:16:04;1.88;;;0.75;;
72941;SDS011;69665;55.822;37.330;2023-06-04T05:19:09;2.78;;;0.80;;
72941;SDS011;69665;55.822;37.330;2023-06-04T05:21:54;2.97;;;1.00;;
72941;SDS011;69665;55.822;37.330;2023-06-04T05:24:39;4.30;;;0.80;;
72941;SDS011;69665;55.822;37.330;2023-06-04T05:27:23;2.85;;;0.90;;
72941;SDS011;69665;55.822;37.330;2023-06-04T05:30:26;1.42;;;0.90;;
72941;SDS011;69665;55.822;37.330;2023-06-04T05:33:10;3.72;;;0.90;;
72941;SDS011;69665;55.822;37.330;2023-06-04T05:36:01;2.28;;;0.80;;
72941;SDS011;69665;55.822;37.330;2023-06-04T05:38:45;3.53;;;0.85;;
72941;SDS011;69665;55.822;37.330;2023-06-04T05:41:29;3.40;;;0.90;;
72941;SDS011;69665;55.822;37.330;2023-06-04T05:44:14;1.00;;;0.70;;
72941;SDS011;69665;55.822;37.330;2023-06-04T05:46:58;2.63;;;0.80;;
72941;SDS011;69665;55.822;37.330;2023-06-04T05:49:42;3.17;;;0.70;;
72941;SDS011;69665;55.822;37.330;2023-06-04T05:52:27;2.28;;;0.88;;
72941;SDS011;69665;55.822;37.330;2023-06-04T05:55:12;1.73;;;0.70;;
72941;SDS011;69665;55.822;37.330;2023-06-04T05:57:56;1.58;;;0.60;;
72941;SDS011;69665;55.822;37.330;2023-06-04T06:00:40;1.52;;;0.77;;
72941;SDS011;69665;55.822;37.330;2023-06-04T06:06:27;2.67;;;0.77;;
72941;SDS011;69665;55.822;37.330;2023-06-04T06:09:12;1.90;;;0.73;;
72941;SDS011;69665;55.822;37.330;2023-06-04T06:11:56;2.70;;;0.80;;
72941;SDS011;69665;55.822;37.330;2023-06-04T06:14:59;2.13;;;0.65;;
72941;SDS011;69665;55.822;37.330;2023-06-04T06:17:43;1.83;;;0.85;;
72941;SDS011;69665;55.822;37.330;2023-06-04T06:20:27;2.97;;;0.88;;
72941;SDS011;69665;55.822;37.330;2023-06-04T06:23:12;1.48;;;0.73;;
72941;SDS011;69665;55.822;37.330;2023-06-04T06:25:58;1.50;;;0.77;;
72941;SDS011;69665;55.822;37.330;2023-06-04T06:28:44;1.67;;;0.70;;
72941;SDS011;69665;55.822;37.330;2023-06-04T06:31:29;2.40;;;1.38;;
72941;SDS011;69665;55.822;37.330;2023-06-04T06:34:13;1.33;;;0.65;;
72941;SDS011;69665;55.822;37.330;2023-06-04T06:36:57;1.83;;;0.80;;
72941;SDS011;69665;55.822;37.330;2023-06-04T06:39:42;2.85;;;1.08;;
72941;SDS011;69665;55.822;37.330;2023-06-04T06:42:26;2.50;;;0.73;;
72941;SDS011;69665;55.822;37.330;2023-06-04T06:45:10;1.88;;;0.70;;
72941;SDS011;69665;55.822;37.330;2023-06-04T06:47:55;1.23;;;0.60;;
72941;SDS011;69665;55.822;37.330;2023-06-04T06:50:39;2.05;;;0.90;;
72941;SDS011;69665;55.822;37.330;2023-06-04T06:53:23;2.30;;;0.57;;
72941;SDS011;69665;55.822;37.330;2023-06-04T06:56:11;1.35;;;0.52;;
72941;SDS011;69665;55.822;37.330;2023-06-04T06:59:14;1.67;;;0.65;;
72941;SDS011;69665;55.822;37.330;2023-06-04T07:01:58;2.15;;;0.68;;
72941;SDS011;69665;55.822;37.330;2023-06-04T07:05:00;1.80;;;0.70;;
72941;SDS011;69665;55.822;37.330;2023-06-04T07:08:03;1.30;;;0.60;;
72941;SDS011;69665;55.822;37.330;2023-06-04T07:10:48;1.95;;;0.65;;
72941;SDS011;69665;55.822;37.330;2023-06-04T07:13:32;1.55;;;0.50;;
72941;SDS011;69665;55.822;37.330;2023-06-04T07:16:18;1.35;;;0.68;;
72941;SDS011;69665;55.822;37.330;2023-06-04T07:19:04;1.38;;;0.70;;
72941;SDS011;69665;55.822;37.330;2023-06-04T07:21:49;1.45;;;0.77;;
72941;SDS011;69665;55.822;37.330;2023-06-04T07:24:34;1.98;;;0.88;;
72941;SDS011;69665;55.822;37.330;2023-06-04T07:27:18;2.47;;;0.93;;
72941;SDS011;69665;55.822;37.330;2023-06-04T07:30:03;2.05;;;0.63;;
72941;SDS011;69665;55.822;37.330;2023-06-04T07:32:47;1.02;;;0.57;;
72941;SDS011;69665;55.822;37.330;2023-06-04T07:35:32;3.60;;;0.90;;
72941;SDS011;69665;55.822;37.330;2023-06-04T07:38:16;2.75;;;0.82;;
72941;SDS011;69665;55.822;37.330;2023-06-04T07:41:01;4.60;;;1.48;;
72941;SDS011;69665;55.822;37.330;2023-06-04T07:43:45;2.65;;;0.80;;
72941;SDS011;69665;55.822;37.330;2023-06-04T07:46:30;2.67;;;0.68;;
72941;SDS011;69665;55.822;37.330;2023-06-04T07:49:14;1.45;;;0.65;;
72941;SDS011;69665;55.822;37.330;2023-06-04T07:51:58;1.70;;;0.50;;
72941;SDS011;69665;55.822;37.330;2023-06-04T07:54:42;1.92;;;0.68;;
72941;SDS011;69665;55.822;37.330;2023-06-04T07:57:49;1.50;;;0.75;;
72941;SDS011;69665;55.822;37.330;2023-06-04T08:00:53;3.28;;;1.00;;
72941;SDS011;69665;55.822;37.330;2023-06-04T08:03:37;1.73;;;0.65;;
72941;SDS011;69665;55.822;37.330;2023-06-04T08:06:21;1.77;;;0.57;;
72941;SDS011;69665;55.822;37.330;2023-06-04T08:09:07;1.70;;;0.63;;
72941;SDS011;69665;55.822;37.330;2023-06-04T08:11:55;1.35;;;0.70;;
72941;SDS011;69665;55.822;37.330;2023-06-04T08:14:40;2.42;;;0.70;;
72941;SDS011;69665;55.822;37.330;2023-06-04T08:17:24;1.85;;;0.57;;
72941;SDS011;69665;55.822;37.330;2023-06-04T08:20:18;1.08;;;0.60;;
72941;SDS011;69665;55.822;37.330;2023-06-04T08:23:19;2.10;;;0.80;;
72941;SDS011;69665;55.822;37.330;2023-06-04T08:26:22;1.30;;;0.60;;
72941;SDS011;69665;55.822;37.330;2023-06-04T08:29:16;1.42;;;0.60;;
72941;SDS011;69665;55.822;37.330;2023-06-04T08:32:07;2.33;;;0.77;;
72941;SDS011;69665;55.822;37.330;2023-06-04T08:34:53;1.52;;;0.85;;
72941;SDS011;69665;55.822;37.330;2023-06-04T08:37:38;3.00;;;1.00;;
72941;SDS011;69665;55.822;37.330;2023-06-04T08:40:23;5.03;;;0.80;;
72941;SDS011;69665;55.822;37.330;2023-06-04T08:43:07;2.53;;;0.80;;
72941;SDS011;69665;55.822;37.330;2023-06-04T08:45:52;2.47;;;0.82;;
72941;SDS011;69665;55.822;37.330;2023-06-04T08:48:45;1.33;;;0.63;;
72941;SDS011;69665;55.822;37.330;2023-06-04T08:51:31;3.20;;;1.10;;
72941;SDS011;69665;55.822;37.330;2023-06-04T08:54:17;2.88;;;1.23;;
72941;SDS011;69665;55.822;37.330;2023-06-04T08:57:01;3.22;;;1.15;;
72941;SDS011;69665;55.822;37.330;2023-06-04T08:59:46;2.90;;;0.90;;
72941;SDS011;69665;55.822;37.330;2023-06-04T09:02:32;2.85;;;0.88;;
72941;SDS011;69665;55.822;37.330;2023-06-04T09:05:20;2.72;;;0.70;;
72941;SDS011;69665;55.822;37.330;2023-06-04T09:13:37;1.25;;;0.70;;
72941;SDS011;69665;55.822;37.330;2023-06-04T09:16:22;5.75;;;0.80;;
72941;SDS011;69665;55.822;37.330;2023-06-04T09:19:06;1.88;;;0.73;;
72941;SDS011;69665;55.822;37.330;2023-06-04T09:21:55;2.13;;;1.05;;
72941;SDS011;69665;55.822;37.330;2023-06-04T09:24:47;3.92;;;1.30;;
72941;SDS011;69665;55.822;37.330;2023-06-04T09:27:53;2.25;;;0.82;;
72941;SDS011;69665;55.822;37.330;2023-06-04T09:30:50;2.55;;;0.90;;
72941;SDS011;69665;55.822;37.330;2023-06-04T09:33:47;3.63;;;1.30;;
72941;SDS011;69665;55.822;37.330;2023-06-04T09:36:33;3.25;;;0.80;;
72941;SDS011;69665;55.822;37.330;2023-06-04T09:39:19;2.30;;;0.70;;
72941;SDS011;69665;55.822;37.330;2023-06-04T09:42:03;3.63;;;0.93;;
72941;SDS011;69665;55.822;37.330;2023-06-04T09:44:48;2.67;;;0.93;;
72941;SDS011;69665;55.822;37.330;2023-06-04T09:47:39;3.97;;;1.08;;
72941;SDS011;69665;55.822;37.330;2023-06-04T09:50:27;4.05;;;0.88;;
72941;SDS011;69665;55.822;37.330;2023-06-04T09:56:06;2.78;;;0.93;;
72941;SDS011;69665;55.822;37.330;2023-06-04T09:58:57;2.97;;;1.05;;
72941;SDS011;69665;55.822;37.330;2023-06-04T10:04:31;2.58;;;0.90;;
72941;SDS011;69665;55.822;37.330;2023-06-04T10:07:17;1.85;;;0.90;;
72941;SDS011;69665;55.822;37.330;2023-06-04T10:10:02;3.15;;;0.93;;
72941;SDS011;69665;55.822;37.330;2023-06-04T10:12:49;3.88;;;1.13;;
72941;SDS011;69665;55.822;37.330;2023-06-04T10:15:44;1.98;;;0.90;;
72941;SDS011;69665;55.822;37.330;2023-06-04T10:18:48;4.05;;;1.10;;
72941;SDS011;69665;55.822;37.330;2023-06-04T10:21:33;3.67;;;1.40;;
72941;SDS011;69665;55.822;37.330;2023-06-04T10:24:21;3.10;;;1.15;;
72941;SDS011;69665;55.822;37.330;2023-06-04T10:27:06;6.18;;;1.65;;
72941;SDS011;69665;55.822;37.330;2023-06-04T10:32:39;4.07;;;0.90;;
72941;SDS011;69665;55.822;37.330;2023-06-04T10:35:34;1.63;;;0.82;;
72941;SDS011;69665;55.822;37.330;2023-06-04T10:38:18;1.70;;;0.80;;
72941;SDS011;69665;55.822;37.330;2023-06-04T10:41:12;4.03;;;0.90;;
72941;SDS011;69665;55.822;37.330;2023-06-04T10:46:45;3.08;;;0.95;;
72941;SDS011;69665;55.822;37.330;2023-06-04T10:49:30;2.22;;;0.93;;
72941;SDS011;69665;55.822;37.330;2023-06-04T10:52:17;2.03;;;0.70;;
72941;SDS011;69665;55.822;37.330;2023-06-04T10:55:05;1.80;;;0.80;;
72941;SDS011;69665;55.822;37.330;2023-06-04T10:57:55;2.85;;;0.90;;
72941;SDS011;69665;55.822;37.330;2023-06-04T11:00:41;2.67;;;0.90;;
72941;SDS011;69665;55.822;37.330;2023-06-04T11:03:37;3.50;;;0.95;;
72941;SDS011;69665;55.822;37.330;2023-06-04T11:06:21;2.97;;;0.88;;
72941;SDS011;69665;55.822;37.330;2023-06-04T11:09:06;2.17;;;0.70;;
72941;SDS011;69665;55.822;37.330;2023-06-04T11:11:57;3.60;;;0.98;;
72941;SDS011;69665;55.822;37.330;2023-06-04T11:17:29;2.80;;;1.20;;
72941;SDS011;69665;55.822;37.330;2023-06-04T11:20:33;5.05;;;1.17;;
72941;SDS011;69665;55.822;37.330;2023-06-04T11:23:17;4.43;;;1.20;;
72941;SDS011;69665;55.822;37.330;2023-06-04T11:26:01;3.13;;;1.02;;
72941;SDS011;69665;55.822;37.330;2023-06-04T11:29:13;4.82;;;0.95;;
72941;SDS011;69665;55.822;37.330;2023-06-04T11:31:59;1.85;;;0.70;;
72941;SDS011;69665;55.822;37.330;2023-06-04T11:34:44;2.58;;;0.90;;
72941;SDS011;69665;55.822;37.330;2023-06-04T11:37:09;3.58;;;0.98;;
72941;SDS011;69665;55.822;37.330;2023-06-04T11:39:54;3.08;;;0.93;;
72941;SDS011;69665;55.822;37.330;2023-06-04T11:42:39;2.75;;;1.00;;
72941;SDS011;69665;55.822;37.330;2023-06-04T11:48:11;3.47;;;1.00;;
72941;SDS011;69665;55.822;37.330;2023-06-04T11:50:56;3.45;;;1.02;;
72941;SDS011;69665;55.822;37.330;2023-06-04T11:53:40;3.40;;;0.80;;
72941;SDS011;69665;55.822;37.330;2023-06-04T11:56:25;2.92;;;0.82;;
72941;SDS011;69665;55.822;37.330;2023-06-04T11:59:11;3.83;;;1.00;;
72941;SDS011;69665;55.822;37.330;2023-06-04T12:01:57;2.85;;;1.30;;
72941;SDS011;69665;55.822;37.330;2023-06-04T12:04:41;2.88;;;1.00;;
72941;SDS011;69665;55.822;37.330;2023-06-04T12:07:26;6.55;;;1.23;;
72941;SDS011;69665;55.822;37.330;2023-06-04T12:10:10;3.00;;;1.00;;
72941;SDS011;69665;55.822;37.330;2023-06-04T12:15:42;4.07;;;1.20;;
72941;SDS011;69665;55.822;37.330;2023-06-04T12:18:45;2.20;;;0.90;;
72941;SDS011;69665;55.822;37.330;2023-06-04T12:21:29;4.72;;;1.95;;
72941;SDS011;69665;55.822;37.330;2023-06-04T12:24:13;5.45;;;1.55;;
72941;SDS011;69665;55.822;37.330;2023-06-04T12:27:04;3.53;;;1.10;;
72941;SDS011;69665;55.822;37.330;2023-06-04T12:30:04;2.75;;;0.90;;
72941;SDS011;69665;55.822;37.330;2023-06-04T12:32:50;2.05;;;0.80;;
72941;SDS011;69665;55.822;37.330;2023-06-04T12:35:35;2.55;;;0.98;;
72941;SDS011;69665;55.822;37.330;2023-06-04T12:38:19;2.63;;;0.80;;
72941;SDS011;69665;55.822;37.330;2023-06-04T12:41:03;3.22;;;0.98;;
72941;SDS011;69665;55.822;37.330;2023-06-04T12:43:47;3.55;;;1.00;;
72941;SDS011;69665;55.822;37.330;2023-06-04T12:46:31;3.63;;;1.00;;
72941;SDS011;69665;55.822;37.330;2023-06-04T12:49:15;3.65;;;1.20;;
72941;SDS011;69665;55.822;37.330;2023-06-04T12:52:00;3.30;;;1.10;;
72941;SDS011;69665;55.822;37.330;2023-06-04T12:54:44;4.07;;;1.20;;
72941;SDS011;69665;55.822;37.330;2023-06-04T12:57:30;5.57;;;1.38;;
72941;SDS011;69665;55.822;37.330;2023-06-04T13:00:14;3.55;;;1.35;;
72941;SDS011;69665;55.822;37.330;2023-06-04T13:03:00;4.10;;;1.15;;
72941;SDS011;69665;55.822;37.330;2023-06-04T13:05:44;3.67;;;1.10;;
72941;SDS011;69665;55.822;37.330;2023-06-04T13:08:28;3.28;;;1.20;;
72941;SDS011;69665;55.822;37.330;2023-06-04T13:11:31;2.65;;;1.02;;
72941;SDS011;69665;55.822;37.330;2023-06-04T13:14:15;3.10;;;0.98;;
72941;SDS011;69665;55.822;37.330;2023-06-04T13:16:59;4.75;;;1.13;;
72941;SDS011;69665;55.822;37.330;2023-06-04T13:19:44;3.10;;;1.00;;
72941;SDS011;69665;55.822;37.330;2023-06-04T13:22:30;2.85;;;1.00;;
72941;SDS011;69665;55.822;37.330;2023-06-04T13:25:14;2.50;;;1.00;;
72941;SDS011;69665;55.822;37.330;2023-06-04T13:27:59;4.93;;;1.20;;
72941;SDS011;69665;55.822;37.330;2023-06-04T13:30:44;3.20;;;1.27;;
72941;SDS011;69665;55.822;37.330;2023-06-04T13:33:28;5.28;;;1.10;;
72941;SDS011;69665;55.822;37.330;2023-06-04T13:36:12;3.60;;;1.00;;
72941;SDS011;69665;55.822;37.330;2023-06-04T13:38:57;4.20;;;1.20;;
72941;SDS011;69665;55.822;37.330;2023-06-04T13:41:45;3.90;;;1.10;;
72941;SDS011;69665;55.822;37.330;2023-06-04T13:44:29;3.05;;;1.00;;
72941;SDS011;69665;55.822;37.330;2023-06-04T13:47:14;3.97;;;1.50;;
72941;SDS011;69665;55.822;37.330;2023-06-04T13:49:58;3.67;;;1.00;;
72941;SDS011;69665;55.822;37.330;2023-06-04T13:52:42;2.47;;;1.00;;
72941;SDS011;69665;55.822;37.330;2023-06-04T13:55:27;2.97;;;0.90;;
72941;SDS011;69665;55.822;37.330;2023-06-04T13:58:11;2.95;;;1.20;;
72941;SDS011;69665;55.822;37.330;2023-06-04T14:00:55;2.35;;;0.93;;
72941;SDS011;69665;55.822;37.330;2023-06-04T14:03:40;3.25;;;1.10;;
72941;SDS011;69665;55.822;37.330;2023-06-04T14:06:24;6.68;;;1.58;;
72941;SDS011;69665;55.822;37.330;2023-06-04T14:09:08;2.90;;;1.10;;
72941;SDS011;69665;55.822;37.330;2023-06-04T14:12:12;6.20;;;1.20;;
72941;SDS011;69665;55.822;37.330;2023-06-04T14:14:57;4.63;;;1.40;;
72941;SDS011;69665;55.822;37.330;2023-06-04T14:17:41;4.32;;;1.35;;
72941;SDS011;69665;55.822;37.330;2023-06-04T14:20:25;2.40;;;0.98;;
72941;SDS011;69665;55.822;37.330;2023-06-04T14:23:09;4.50;;;1.15;;
72941;SDS011;69665;55.822;37.330;2023-06-04T14:25:55;4.63;;;1.52;;
72941;SDS011;69665;55.822;37.330;2023-06-04T14:28:40;5.13;;;1.55;;
72941;SDS011;69665;55.822;37.330;2023-06-04T14:31:24;4.35;;;1.50;;
72941;SDS011;69665;55.822;37.330;2023-06-04T14:34:09;5.90;;;1.55;;
72941;SDS011;69665;55.822;37.330;2023-06-04T14:36:54;6.50;;;2.08;;
72941;SDS011;69665;55.822;37.330;2023-06-04T14:39:38;4.50;;;1.58;;
72941;SDS011;69665;55.822;37.330;2023-06-04T14:42:22;3.83;;;1.38;;
72941;SDS011;69665;55.822;37.330;2023-06-04T14:45:07;4.60;;;1.48;;
72941;SDS011;69665;55.822;37.330;2023-06-04T14:47:51;3.63;;;1.10;;
72941;SDS011;69665;55.822;37.330;2023-06-04T14:50:35;2.97;;;1.05;;
72941;SDS011;69665;55.822;37.330;2023-06-04T14:53:19;3.42;;;1.38;;
72941;SDS011;69665;55.822;37.330;2023-06-04T14:56:04;7.68;;;1.65;;
72941;SDS011;69665;55.822;37.330;2023-06-04T14:58:48;5.57;;;1.60;;
72941;SDS011;69665;55.822;37.330;2023-06-04T15:01:33;3.95;;;1.00;;
72941;SDS011;69665;55.822;37.330;2023-06-04T15:05:09;3.83;;;1.30;;
72941;SDS011;69665;55.822;37.330;2023-06-04T15:08:12;3.97;;;1.27;;
72941;SDS011;69665;55.822;37.330;2023-06-04T15:10:55;3.63;;;1.23;;
72941;SDS011;69665;55.822;37.330;2023-06-04T15:13:40;6.72;;;1.38;;
72941;SDS011;69665;55.822;37.330;2023-06-04T15:16:24;4.50;;;1.10;;
72941;SDS011;69665;55.822;37.330;2023-06-04T15:19:09;3.85;;;0.90;;
72941;SDS011;69665;55.822;37.330;2023-06-04T15:21:53;2.97;;;1.10;;
72941;SDS011;69665;55.822;37.330;2023-06-04T15:24:37;3.63;;;0.90;;
72941;SDS011;69665;55.822;37.330;2023-06-04T15:27:22;2.20;;;0.90;;
72941;SDS011;69665;55.822;37.330;2023-06-04T15:30:06;4.10;;;1.00;;
72941;SDS011;69665;55.822;37.330;2023-06-04T15:32:51;2.33;;;1.00;;
72941;SDS011;69665;55.822;37.330;2023-06-04T15:35:35;3.95;;;1.10;;
72941;SDS011;69665;55.822;37.330;2023-06-04T15:38:19;5.40;;;1.10;;
72941;SDS011;69665;55.822;37.330;2023-06-04T15:41:04;2.30;;;1.02;;
72941;SDS011;69665;55.822;37.330;2023-06-04T15:43:49;3.53;;;0.93;;
72941;SDS011;69665;55.822;37.330;2023-06-04T15:46:35;4.15;;;1.17;;
72941;SDS011;69665;55.822;37.330;2023-06-04T15:49:19;3.10;;;1.13;;
72941;SDS011;69665;55.822;37.330;2023-06-04T15:52:03;3.53;;;1.13;;
72941;SDS011;69665;55.822;37.330;2023-06-04T15:54:47;2.92;;;1.20;;
72941;SDS011;69665;55.822;37.330;2023-06-04T15:57:50;4.38;;;1.88;;
72941;SDS011;69665;55.822;37.330;2023-06-04T16:00:35;3.08;;;1.30;;
72941;SDS011;69665;55.822;37.330;2023-06-04T16:03:19;3.05;;;1.30;;
72941;SDS011;69665;55.822;37.330;2023-06-04T16:06:03;4.22;;;1.15;;
72941;SDS011;69665;55.822;37.330;2023-06-04T16:08:47;3.95;;;1.15;;
72941;SDS011;69665;55.822;37.330;2023-06-04T16:11:32;4.90;;;1.30;;
72941;SDS011;69665;55.822;37.330;2023-06-04T16:14:18;3.38;;;1.20;;
72941;SDS011;69665;55.822;37.330;2023-06-04T16:17:03;7.38;;;1.60;;
72941;SDS011;69665;55.822;37.330;2023-06-04T16:19:47;3.63;;;1.20;;
72941;SDS011;69665;55.822;37.330;2023-06-04T16:22:31;2.88;;;1.20;;
72941;SDS011;69665;55.822;37.330;2023-06-04T16:25:16;4.82;;;1.20;;
72941;SDS011;69665;55.822;37.330;2023-06-04T16:28:01;4.22;;;1.25;;
72941;SDS011;69665;55.822;37.330;2023-06-04T16:30:45;3.55;;;1.20;;
72941;SDS011;69665;55.822;37.330;2023-06-04T16:33:30;3.45;;;1.17;;
72941;SDS011;69665;55.822;37.330;2023-06-04T16:36:14;3.58;;;1.00;;
72941;SDS011;69665;55.822;37.330;2023-06-04T16:38:58;3.55;;;1.17;;
72941;SDS011;69665;55.822;37.330;2023-06-04T16:41:42;3.45;;;1.00;;
72941;SDS011;69665;55.822;37.330;2023-06-04T16:47:32;4.97;;;1.20;;
72941;SDS011;69665;55.822;37.330;2023-06-04T16:50:18;3.15;;;1.05;;
72941;SDS011;69665;55.822;37.330;2023-06-04T16:53:02;3.42;;;1.20;;
72941;SDS011;69665;55.822;37.330;2023-06-04T16:55:47;4.05;;;1.30;;
72941;SDS011;69665;55.822;37.330;2023-06-04T16:58:51;3.83;;;1.63;;
72941;SDS011;69665;55.822;37.330;2023-06-04T17:01:35;5.85;;;1.30;;
72941;SDS011;69665;55.822;37.330;2023-06-04T17:04:20;5.18;;;2.03;;
72941;SDS011;69665;55.822;37.330;2023-06-04T17:07:04;5.10;;;1.67;;
72941;SDS011;69665;55.822;37.330;2023-06-04T17:09:49;5.45;;;1.33;;
72941;SDS011;69665;55.822;37.330;2023-06-04T17:12:52;3.88;;;1.38;;